createdAt,value
2023-06-22T00:00:23.213Z,16.10
2023-06-22T00:05:47.982Z,13.00
2023-06-22T00:10:50.762Z,12.70
2023-06-22T00:15:55.672Z,14.90
2023-06-22T00:20:59.564Z,15.50
2023-06-22T00:26:04.022Z,16.50
2023-06-22T00:31:06.971Z,16.00
2023-06-22T00:36:09.773Z,15.10
2023-06-22T00:41:15.194Z,15.50
2023-06-22T00:46:20.795Z,16.40
2023-06-22T00:51:25.532Z,15.80
2023-06-22T00:56:33.907Z,15.90
2023-06-22T01:01:44.135Z,15.90
2023-06-22T01:07:24.185Z,16.20
2023-06-22T01:12:35.973Z,15.20
2023-06-22T01:17:44.061Z,16.20
2023-06-22T01:23:36.305Z,14.70
2023-06-22T01:28:51.180Z,13.20
2023-06-22T01:33:59.260Z,12.20
2023-06-22T01:39:06.424Z,12.40
2023-06-22T01:44:12.555Z,12.30
2023-06-22T01:49:16.336Z,12.70
2023-06-22T01:54:21.402Z,14.50
2023-06-22T01:59:42.646Z,15.70
2023-06-22T02:05:11.647Z,14.40
2023-06-22T02:10:21.005Z,14.70
2023-06-22T02:15:26.785Z,13.10
2023-06-22T02:20:30.220Z,12.70
2023-06-22T02:25:34.196Z,12.60
2023-06-22T02:30:36.984Z,12.90
2023-06-22T02:35:40.879Z,11.00
2023-06-22T02:40:47.910Z,10.40
2023-06-22T02:45:51.781Z,10.40
2023-06-22T02:50:54.530Z,12.80
2023-06-22T02:55:57.431Z,13.00
2023-06-22T03:01:05.907Z,12.70
2023-06-22T03:06:15.359Z,9.90
2023-06-22T03:11:18.320Z,9.80
2023-06-22T03:16:22.640Z,11.30
2023-06-22T03:21:30.109Z,11.10
2023-06-22T03:26:33.217Z,11.20
2023-06-22T03:31:37.199Z,10.80
2023-06-22T03:36:46.606Z,10.30
2023-06-22T03:41:52.720Z,10.60
2023-06-22T03:46:55.356Z,10.40
2023-06-22T03:52:00.608Z,10.10
2023-06-22T03:57:08.347Z,9.40
2023-06-22T04:02:11.100Z,9.40
2023-06-22T04:07:14.121Z,7.70
2023-06-22T04:12:19.023Z,8.00
2023-06-22T04:17:21.985Z,9.70
2023-06-22T04:22:24.639Z,8.30
2023-06-22T04:27:27.893Z,6.90
2023-06-22T04:32:30.637Z,7.80
2023-06-22T04:37:34.920Z,8.30
2023-06-22T04:42:40.728Z,7.70
2023-06-22T04:47:44.036Z,9.00
2023-06-22T04:52:51.612Z,7.60
2023-06-22T04:57:56.722Z,8.30
2023-06-22T05:03:14.889Z,7.80
2023-06-22T05:08:29.948Z,7.60
2023-06-22T05:13:33.239Z,7.50
2023-06-22T05:18:40.467Z,7.80
2023-06-22T05:24:09.295Z,7.60
2023-06-22T05:29:11.991Z,7.90
2023-06-22T05:34:20.590Z,7.90
2023-06-22T05:39:24.688Z,8.00
2023-06-22T05:44:27.382Z,8.00
2023-06-22T05:49:33.736Z,8.80
2023-06-22T05:54:39.614Z,8.40
2023-06-22T05:59:42.379Z,7.20
2023-06-22T06:04:47.092Z,7.80
2023-06-22T06:09:51.064Z,8.40
2023-06-22T06:14:57.698Z,9.00
2023-06-22T06:20:03.601Z,8.20
2023-06-22T06:25:08.350Z,9.60
2023-06-22T06:30:15.997Z,12.30
2023-06-22T06:35:25.318Z,8.50
2023-06-22T06:40:31.087Z,8.40
2023-06-22T06:45:35.921Z,9.60
2023-06-22T06:50:41.808Z,9.10
2023-06-22T06:55:49.287Z,9.00
2023-06-22T07:00:52.174Z,8.40
2023-06-22T07:05:57.616Z,8.60
2023-06-22T07:11:02.134Z,7.20
2023-06-22T07:16:06.753Z,8.70
2023-06-22T07:21:09.537Z,7.00
2023-06-22T07:26:13.824Z,8.40
2023-06-22T07:31:18.960Z,9.50
2023-06-22T07:36:24.249Z,8.90
2023-06-22T07:41:27.146Z,10.30
2023-06-22T07:46:33.111Z,7.30
2023-06-22T07:51:36.223Z,7.50
2023-06-22T07:56:44.629Z,7.80
2023-06-22T08:01:50.493Z,8.60
2023-06-22T08:06:53.409Z,8.80
2023-06-22T08:11:57.770Z,9.20
2023-06-22T08:17:00.532Z,11.10
2023-06-22T08:22:03.480Z,10.50
2023-06-22T08:27:15.813Z,10.40
2023-06-22T08:32:18.926Z,10.60
2023-06-22T08:37:24.839Z,10.20
2023-06-22T08:42:28.396Z,9.40
2023-06-22T08:47:31.586Z,10.30
2023-06-22T08:52:35.864Z,8.30
2023-06-22T08:57:40.471Z,8.60
2023-06-22T09:02:50.238Z,8.40
2023-06-22T09:08:01.191Z,8.00
2023-06-22T09:13:06.750Z,7.40
2023-06-22T09:18:12.849Z,7.30
2023-06-22T09:23:15.938Z,6.20
2023-06-22T09:28:22.954Z,6.20
2023-06-22T09:33:27.746Z,5.60
2023-06-22T09:38:30.548Z,5.70
2023-06-22T09:43:37.269Z,5.20
2023-06-22T09:48:43.242Z,5.80
2023-06-22T09:53:46.118Z,5.80
2023-06-22T09:58:52.089Z,5.70
2023-06-22T10:04:03.930Z,5.50
2023-06-22T10:09:07.715Z,5.40
2023-06-22T10:14:11.682Z,5.80
2023-06-22T10:19:14.588Z,5.80
2023-06-22T10:24:17.463Z,5.90
2023-06-22T10:29:22.115Z,5.80
2023-06-22T10:34:24.799Z,6.00
2023-06-22T10:39:27.521Z,5.00
2023-06-22T10:44:30.227Z,5.60
2023-06-22T10:49:35.409Z,4.80
2023-06-22T10:54:39.895Z,4.40
2023-06-22T10:59:45.365Z,4.10
2023-06-22T11:04:51.171Z,4.10
2023-06-22T11:09:54.140Z,4.80
2023-06-22T11:23:15.387Z,4.20
2023-06-22T11:28:33.075Z,3.60
2023-06-22T11:34:14.929Z,3.00
2023-06-22T11:40:06.283Z,3.20
2023-06-22T11:45:42.654Z,3.00
2023-06-22T12:08:10.166Z,2.10
2023-06-22T12:13:41.340Z,2.80
2023-06-22T12:18:44.045Z,2.30
2023-06-22T12:25:15.496Z,2.40
2023-06-22T12:30:52.434Z,2.30
2023-06-22T12:35:57.271Z,2.60
2023-06-22T12:43:53.134Z,2.60
2023-06-22T12:46:38.780Z,2.20
2023-06-22T12:51:43.719Z,2.40
2023-06-22T12:56:46.730Z,2.50
2023-06-22T13:01:52.406Z,2.70
2023-06-22T13:06:55.311Z,2.30
2023-06-22T13:12:00.987Z,2.90
2023-06-22T13:17:03.939Z,2.40
2023-06-22T13:22:31.723Z,2.00
2023-06-22T13:27:34.506Z,2.40
2023-06-22T13:32:37.538Z,2.60
2023-06-22T13:37:42.447Z,2.40
2023-06-22T13:42:46.422Z,2.10
2023-06-22T13:47:49.167Z,2.80
2023-06-22T13:52:54.186Z,2.60
2023-06-22T13:57:56.876Z,2.40
2023-06-22T14:02:59.593Z,2.60
2023-06-22T14:08:03.951Z,2.70
2023-06-22T14:13:08.154Z,2.50
2023-06-22T14:18:16.206Z,2.40
2023-06-22T14:23:19.020Z,2.40
2023-06-22T14:28:22.161Z,2.50
2023-06-22T14:33:24.864Z,2.60
2023-06-22T14:38:28.683Z,2.70
2023-06-22T14:43:32.752Z,2.60
2023-06-22T14:48:35.572Z,2.10
2023-06-22T14:53:39.602Z,2.50
2023-06-22T14:58:48.293Z,2.40
2023-06-22T15:03:52.197Z,2.70
2023-06-22T15:08:55.185Z,2.60
2023-06-22T15:14:00.057Z,2.40
2023-06-22T15:19:03.147Z,2.10
2023-06-22T15:24:06.078Z,2.30
2023-06-22T15:29:14.970Z,2.90
2023-06-22T15:34:22.404Z,2.50
2023-06-22T15:39:35.006Z,2.60
2023-06-22T15:44:37.869Z,2.30
2023-06-22T15:49:40.575Z,2.10
2023-06-22T15:54:47.113Z,2.40
2023-06-22T15:59:51.596Z,2.40
2023-06-22T16:04:59.864Z,2.30
2023-06-22T16:10:05.443Z,2.20
2023-06-22T16:15:09.064Z,2.30
2023-06-22T16:20:27.205Z,2.40
2023-06-22T16:25:32.462Z,2.30
2023-06-22T16:30:35.423Z,2.40
2023-06-22T16:35:40.138Z,2.60
2023-06-22T16:40:42.920Z,2.50
2023-06-22T16:45:45.629Z,5.30
2023-06-22T16:50:48.320Z,3.60
2023-06-22T16:55:56.039Z,2.80
2023-06-22T17:01:00.492Z,2.60
2023-06-22T17:06:04.449Z,2.50
2023-06-22T17:11:09.645Z,2.60
2023-06-22T17:16:13.271Z,2.60
2023-06-22T17:21:23.901Z,2.40
2023-06-22T17:26:29.064Z,2.60
2023-06-22T17:31:44.547Z,2.80
2023-06-22T17:36:52.970Z,2.00
2023-06-22T17:41:55.927Z,2.50
2023-06-22T17:47:00.049Z,2.50
2023-06-22T17:52:02.938Z,2.50
2023-06-22T17:57:17.324Z,2.30
2023-06-22T18:02:26.687Z,2.30
2023-06-22T18:07:33.401Z,2.40
2023-06-22T18:12:44.700Z,2.60
2023-06-22T18:17:52.068Z,3.20
2023-06-22T18:23:01.598Z,3.60
2023-06-22T18:28:10.691Z,3.60
2023-06-22T18:33:13.773Z,3.50
2023-06-22T18:38:17.173Z,3.30
2023-06-22T18:43:27.039Z,4.10
2023-06-22T18:48:29.667Z,3.60
2023-06-22T18:53:32.478Z,3.70
2023-06-22T18:58:35.283Z,4.10
2023-06-22T19:03:43.217Z,3.80
2023-06-22T19:09:15.598Z,3.80
2023-06-22T19:14:22.856Z,3.70
2023-06-22T19:19:25.631Z,3.60
2023-06-22T19:24:47.989Z,3.30
2023-06-22T19:29:55.317Z,3.40
2023-06-22T19:35:00.339Z,3.80
2023-06-22T19:40:07.192Z,3.70
2023-06-22T19:45:16.466Z,3.50
2023-06-22T19:50:19.315Z,3.30
2023-06-22T19:55:23.641Z,3.30
2023-06-22T20:00:26.759Z,3.40
2023-06-22T20:05:29.909Z,3.10
2023-06-22T20:10:39.477Z,3.70
2023-06-22T20:15:48.091Z,3.50
2023-06-22T20:20:53.420Z,3.40
2023-06-22T20:25:59.026Z,3.20
2023-06-22T20:31:12.684Z,3.10
2023-06-22T20:36:17.786Z,3.40
2023-06-22T20:41:20.727Z,3.30
2023-06-22T20:46:25.951Z,3.10
2023-06-22T20:51:28.856Z,3.00
2023-06-22T20:56:34.098Z,3.30
2023-06-22T21:01:37.110Z,3.50
2023-06-22T21:06:40.129Z,3.50
2023-06-22T21:11:42.884Z,2.70
2023-06-22T21:16:48.938Z,3.50
2023-06-22T21:21:52.131Z,3.50
2023-06-22T21:26:55.080Z,3.90
2023-06-22T21:31:58.045Z,2.80
2023-06-22T21:37:01.164Z,3.10
2023-06-22T21:42:07.124Z,3.80
2023-06-22T21:47:10.563Z,3.50
2023-06-22T21:52:15.748Z,3.50
2023-06-22T21:57:23.095Z,3.40
2023-06-22T22:02:26.978Z,3.20
2023-06-22T22:07:31.478Z,3.30
2023-06-22T22:12:35.706Z,3.00
2023-06-22T22:17:38.611Z,3.00
2023-06-22T22:22:41.744Z,3.20
2023-06-22T22:27:46.837Z,4.70
2023-06-22T22:32:50.028Z,4.60
2023-06-22T22:37:55.372Z,3.50
2023-06-22T22:43:00.333Z,3.30
2023-06-22T22:48:05.911Z,3.40
2023-06-22T22:53:11.450Z,3.10
2023-06-22T22:58:16.998Z,8.60
2023-06-22T23:03:19.897Z,3.50
2023-06-22T23:08:24.495Z,5.40
2023-06-22T23:13:28.488Z,3.20
2023-06-22T23:18:32.788Z,3.40
2023-06-22T23:23:37.536Z,3.60
2023-06-22T23:28:46.022Z,3.80
2023-06-22T23:33:49.307Z,6.00
2023-06-22T23:38:54.579Z,4.50
2023-06-22T23:43:57.768Z,4.10
2023-06-22T23:49:03.365Z,3.90
2023-06-22T23:54:06.250Z,4.30
2023-06-22T23:59:09.654Z,5.30
